Time;durP1;ratioP1;P1;durP2;ratioP2;P2;SDS_P1;SDS_P2;PMS_P1;PMS_P2;Temp;Humidity;BMP_temperature;BMP_pressure;BME280_temperature;BME280_humidity;BME280_pressure;Samples;Min_cycle;Max_cycle;Signal;HPM_P1;HPM_P2
2022/12/10 00:01:47;;;;;;;;;;;;;;;26.75;51.19;96196.30;610045;232;68752;-67
2022/12/10 00:04:15;;;;;;;;;;;;;;;26.74;50.27;96187.44;610043;232;65352;-67
2022/12/10 00:06:43;;;;;;;;;;;;;;;26.74;49.92;96189.34;610071;232;68821;-67
2022/12/10 00:09:12;;;;;;;;;;;;;;;26.72;50.16;96194.27;610043;232;68733;-67
2022/12/10 00:11:40;;;;;;;;;;;;;;;26.72;50.82;96195.05;610049;232;64936;-67
2022/12/10 00:14:08;;;;;;;;;;;;;;;26.71;50.03;96195.37;609994;232;68851;-67
2022/12/10 00:16:35;;;;;;;;;;;;;;;26.71;50.38;96189.98;610054;232;68524;-67
2022/12/10 00:19:03;;;;;;;;;;;;;;;26.69;49.93;96184.93;610075;232;65257;-67
2022/12/10 00:21:32;;;;;;;;;;;;;;;26.69;50.63;96181.45;610038;232;68800;-69
2022/12/10 00:24:00;;;;;;;;;;;;;;;26.67;50.38;96184.47;609984;232;66791;-69
2022/12/10 00:26:29;;;;;;;;;;;;;;;26.66;50.58;96188.28;610010;232;62925;-69
2022/12/10 00:28:57;;;;;;;;;;;;;;;26.66;50.06;96182.89;610016;232;66416;-69
2022/12/10 00:31:28;;;;;;;;;;;;;;;26.66;49.93;96182.11;610019;232;68733;-69
2022/12/10 00:33:57;;;;;;;;;;;;;;;26.65;50.49;96178.60;610081;232;64983;-70
2022/12/10 00:36:29;;;;;;;;;;;;;;;26.63;51.16;96175.47;610031;232;68748;-69
2022/12/10 00:38:57;;;;;;;;;;;;;;;26.62;51.42;96183.87;609904;232;69563;-69
2022/12/10 00:41:26;;;;;;;;;;;;;;;26.61;50.08;96185.00;610121;232;43986;-69
2022/12/10 00:43:54;;;;;;;;;;;;;;;26.60;50.45;96194.99;610043;232;68857;-69
2022/12/10 00:46:22;;;;;;;;;;;;;;;26.60;50.73;96184.22;610090;232;68630;-69
2022/12/10 00:48:49;;;;;;;;;;;;;;;26.60;50.44;96184.22;610006;232;63082;-69
2022/12/10 00:51:21;;;;;;;;;;;;;;;26.58;50.83;96181.05;610044;232;66747;-69
2022/12/10 00:53:49;;;;;;;;;;;;;;;26.58;51.04;96182.96;609983;232;66848;-69
2022/12/10 00:56:17;;;;;;;;;;;;;;;26.56;51.49;96175.97;610034;232;65054;-69
2022/12/10 00:58:45;;;;;;;;;;;;;;;26.55;51.12;96187.09;610017;232;68956;-69
2022/12/10 01:01:14;;;;;;;;;;;;;;;26.55;51.88;96190.58;610092;232;68523;-69
2022/12/10 01:03:42;;;;;;;;;;;;;;;26.54;51.50;96177.42;609681;232;64766;-69
2022/12/10 01:06:13;;;;;;;;;;;;;;;26.53;51.55;96182.02;610017;232;68847;-69
2022/12/10 01:08:41;;;;;;;;;;;;;;;26.52;50.50;96166.98;610009;232;66221;-69
2022/12/10 01:11:10;;;;;;;;;;;;;;;26.52;51.48;96177.76;610026;232;64841;-69
2022/12/10 01:13:38;;;;;;;;;;;;;;;26.51;51.12;96178.08;610046;232;69580;-68
2022/12/10 01:16:06;;;;;;;;;;;;;;;26.51;51.22;96167.30;610009;232;68733;-69
2022/12/10 01:18:34;;;;;;;;;;;;;;;26.49;50.20;96161.41;609994;232;64909;-68
2022/12/10 01:21:05;;;;;;;;;;;;;;;26.48;52.32;96173.31;610016;232;68752;-68
2022/12/10 01:23:34;;;;;;;;;;;;;;;26.49;51.03;96156.02;610030;232;66520;-68
2022/12/10 01:26:03;;;;;;;;;;;;;;;26.47;50.86;96166.36;610035;232;65177;-69
2022/12/10 01:28:32;;;;;;;;;;;;;;;26.47;52.07;96166.36;609880;232;68612;-69
2022/12/10 01:31:03;;;;;;;;;;;;;;;26.45;51.18;96161.28;610009;232;68514;-69
2022/12/10 01:33:31;;;;;;;;;;;;;;;26.45;50.76;96165.89;610019;232;65685;-69
2022/12/10 01:36:08;;;;;;;;;;;;;;;26.45;51.24;96163.19;610018;232;69570;-68
2022/12/10 01:38:36;;;;;;;;;;;;;;;26.42;50.47;96161.94;609985;232;67080;-68
2022/12/10 01:41:06;;;;;;;;;;;;;;;26.43;51.17;96168.11;610102;232;64984;-68
2022/12/10 01:43:50;;;;;;;;;;;;;;;26.42;52.13;96166.55;609981;232;66327;-69
2022/12/10 01:46:19;;;;;;;;;;;;;;;26.40;51.41;96161.47;610040;232;68706;-69
2022/12/10 01:48:47;;;;;;;;;;;;;;;26.39;50.58;96154.52;610030;232;62719;-69
2022/12/10 01:51:15;;;;;;;;;;;;;;;26.39;49.56;96159.12;610020;232;68978;-69
2022/12/10 01:53:43;;;;;;;;;;;;;;;26.38;52.08;96152.13;610036;232;68368;-68
2022/12/10 01:56:11;;;;;;;;;;;;;;;26.36;51.23;96149.78;610082;232;65045;-69
2022/12/10 01:58:39;;;;;;;;;;;;;;;26.37;51.03;96150.56;610039;232;66038;-68
2022/12/10 02:01:08;;;;;;;;;;;;;;;26.35;51.45;96148.19;610069;232;68687;-69
2022/12/10 02:03:40;;;;;;;;;;;;;;;26.35;51.60;96150.88;610021;232;63578;-70
2022/12/10 02:06:10;;;;;;;;;;;;;;;26.34;51.42;96152.79;609882;232;68735;-65
2022/12/10 02:08:39;;;;;;;;;;;;;;;26.33;51.04;96151.22;609332;232;68438;-65
2022/12/10 02:11:08;;;;;;;;;;;;;;;26.32;50.80;96143.45;609977;232;64984;-66
2022/12/10 02:13:56;;;;;;;;;;;;;;;26.31;51.67;96145.36;610048;232;67122;-67
2022/12/10 02:16:40;;;;;;;;;;;;;;;26.31;51.44;96139.98;610031;232;68351;-70
2022/12/10 02:19:11;;;;;;;;;;;;;;;26.31;51.90;96139.20;610023;232;47526;-70
2022/12/10 02:21:40;;;;;;;;;;;;;;;26.29;52.36;96136.03;610051;232;68765;-70
2022/12/10 02:24:13;;;;;;;;;;;;;;;26.28;52.42;96140.64;610030;232;47438;-69
2022/12/10 02:26:52;;;;;;;;;;;;;;;26.27;52.37;96147.14;609908;232;65080;-67
2022/12/10 02:29:21;;;;;;;;;;;;;;;26.26;51.70;96134.78;607892;233;66440;-66
2022/12/10 02:31:50;;;;;;;;;;;;;;;26.26;52.00;96142.08;607878;233;68654;-67
2022/12/10 02:34:19;;;;;;;;;;;;;;;26.23;53.39;96131.95;608004;233;65566;-67
2022/12/10 02:36:48;;;;;;;;;;;;;;;26.22;51.82;96131.17;608023;233;68351;-66
2022/12/10 02:39:17;;;;;;;;;;;;;;;26.21;51.06;96126.88;607986;233;69099;-66
2022/12/10 02:41:51;;;;;;;;;;;;;;;26.21;51.03;96129.58;608034;233;43647;-66
2022/12/10 02:44:19;;;;;;;;;;;;;;;26.20;51.91;96133.39;608029;233;69327;-66
2022/12/10 02:46:48;;;;;;;;;;;;;;;26.19;51.85;96131.83;608032;233;68510;-67
2022/12/10 02:49:18;;;;;;;;;;;;;;;26.18;52.63;96119.46;608050;233;64932;-66
2022/12/10 02:51:46;;;;;;;;;;;;;;;26.18;50.05;96118.68;608047;233;68997;-69
2022/12/10 02:54:32;;;;;;;;;;;;;;;26.16;51.15;96105.53;608020;233;68915;-69
2022/12/10 02:57:01;;;;;;;;;;;;;;;26.17;52.17;96112.51;608074;233;65152;-69
2022/12/10 02:59:30;;;;;;;;;;;;;;;26.15;51.87;96109.34;607993;233;69030;-65
2022/12/10 03:02:16;;;;;;;;;;;;;;;26.14;53.31;96107.78;607946;233;68571;-66
2022/12/10 03:04:45;;;;;;;;;;;;;;;26.13;53.39;96117.73;607989;233;64960;-66
2022/12/10 03:07:14;;;;;;;;;;;;;;;26.11;51.18;96111.13;607094;233;68804;-67
2022/12/10 03:09:49;;;;;;;;;;;;;;;26.11;52.77;96117.30;607721;233;68890;-67
2022/12/10 03:12:21;;;;;;;;;;;;;;;26.10;51.20;96115.70;607251;233;62904;-66
2022/12/10 03:14:49;;;;;;;;;;;;;;;26.09;52.14;96113.34;607772;233;68582;-67
2022/12/10 03:17:17;;;;;;;;;;;;;;;26.08;52.23;96115.25;607981;233;68604;-69
2022/12/10 03:19:46;;;;;;;;;;;;;;;26.08;52.68;96111.75;607979;233;62930;-69
2022/12/10 03:22:15;;;;;;;;;;;;;;;26.07;52.64;96113.66;608036;233;69671;-70
2022/12/10 03:24:43;;;;;;;;;;;;;;;26.06;51.63;96103.23;608028;233;66216;-70
2022/12/10 03:27:12;;;;;;;;;;;;;;;26.06;52.78;96106.70;608525;232;65264;-70
2022/12/10 03:29:41;;;;;;;;;;;;;;;26.05;52.48;96104.33;609977;232;68853;-70
2022/12/10 03:32:08;;;;;;;;;;;;;;;26.05;51.88;96104.33;609950;230;66596;-70
2022/12/10 03:34:36;;;;;;;;;;;;;;;26.03;52.85;96096.59;610002;232;62777;-69
2022/12/10 03:37:05;;;;;;;;;;;;;;;26.02;52.12;96105.77;610046;232;66704;-70
2022/12/10 03:39:33;;;;;;;;;;;;;;;26.01;51.64;96109.58;610054;232;68701;-70
2022/12/10 03:42:00;;;;;;;;;;;;;;;26.02;52.33;96110.37;610003;232;65175;-70
2022/12/10 03:44:32;;;;;;;;;;;;;;;26.01;51.50;96114.97;609962;232;66635;-70
2022/12/10 03:47:00;;;;;;;;;;;;;;;26.00;52.76;96115.28;610003;232;68776;-70
2022/12/10 03:49:28;;;;;;;;;;;;;;;26.00;52.07;96112.59;610001;232;65888;-70
2022/12/10 03:51:56;;;;;;;;;;;;;;;25.99;52.38;96116.41;610068;232;68866;-70
2022/12/10 03:54:23;;;;;;;;;;;;;;;25.98;52.85;96117.53;609997;232;68629;-69
2022/12/10 03:56:51;;;;;;;;;;;;;;;25.98;53.67;96117.53;609996;232;65038;-70
2022/12/10 03:59:18;;;;;;;;;;;;;;;25.97;53.13;96118.62;609984;232;70756;-70
2022/12/10 04:01:46;;;;;;;;;;;;;;;25.95;53.51;96110.89;610029;232;68509;-70
2022/12/10 04:04:14;;;;;;;;;;;;;;;25.94;53.03;96114.68;610059;232;65749;-70
2022/12/10 04:06:42;;;;;;;;;;;;;;;25.94;53.70;96119.28;610005;232;68797;-70
2022/12/10 04:09:13;;;;;;;;;;;;;;;25.93;52.18;96115.02;609984;232;69050;-70
2022/12/10 04:11:42;;;;;;;;;;;;;;;25.92;53.48;96125.00;609992;232;65740;-70
2022/12/10 04:16:56;;;;;;;;;;;;;;;25.90;54.17;96114.55;610001;232;68651;-67
2022/12/10 04:19:24;;;;;;;;;;;;;;;25.89;54.10;96110.29;610061;232;63084;-67
2022/12/10 04:27:27;;;;;;;;;;;;;;;25.85;52.88;96114.73;610005;232;63096;-68
2022/12/10 04:29:56;;;;;;;;;;;;;;;25.86;53.08;96113.63;610043;232;68535;-69
2022/12/10 04:32:24;;;;;;;;;;;;;;;25.84;53.29;96113.16;609992;232;68814;-69
2022/12/10 04:34:51;;;;;;;;;;;;;;;25.84;53.00;96115.06;610011;232;65114;-69
2022/12/10 04:37:19;;;;;;;;;;;;;;;25.83;53.71;96125.02;610061;232;69147;-69
2022/12/10 04:39:47;;;;;;;;;;;;;;;25.82;53.77;96109.97;610032;232;68682;-69
2022/12/10 04:42:14;;;;;;;;;;;;;;;25.81;53.50;96111.09;610050;232;65101;-69
2022/12/10 04:44:42;;;;;;;;;;;;;;;25.81;54.76;96103.02;609985;232;68781;-69
2022/12/10 04:47:11;;;;;;;;;;;;;;;25.79;54.43;96097.16;610042;232;66607;-69
2022/12/10 04:49:38;;;;;;;;;;;;;;;25.79;53.54;96101.76;610074;232;63081;-69
2022/12/10 04:52:07;;;;;;;;;;;;;;;25.78;54.69;96094.78;610059;232;66729;-69
2022/12/10 04:54:34;;;;;;;;;;;;;;;25.78;54.41;96098.28;610021;232;66774;-69
2022/12/10 04:57:02;;;;;;;;;;;;;;;25.77;53.60;96109.36;610026;232;62959;-69
2022/12/10 04:59:29;;;;;;;;;;;;;;;25.76;53.90;96113.17;610004;232;66566;-66
2022/12/10 05:01:57;;;;;;;;;;;;;;;25.75;54.14;96104.29;610060;232;66490;-66
2022/12/10 05:04:24;;;;;;;;;;;;;;;25.74;52.83;96110.80;610038;232;62932;-69
2022/12/10 05:06:52;;;;;;;;;;;;;;;25.73;53.67;96109.23;610017;232;68748;-69
2022/12/10 05:09:19;;;;;;;;;;;;;;;25.73;53.37;96109.23;610040;232;68831;-69
2022/12/10 05:11:47;;;;;;;;;;;;;;;25.73;53.61;96103.03;609994;232;65067;-69
2022/12/10 05:14:15;;;;;;;;;;;;;;;25.72;54.34;96107.63;610073;232;66642;-69
2022/12/10 05:16:42;;;;;;;;;;;;;;;25.72;52.88;96112.23;610021;232;68368;-69
2022/12/10 05:19:10;;;;;;;;;;;;;;;25.70;54.54;96120.64;610029;232;65079;-69
2022/12/10 05:24:23;;;;;;;;;;;;;;;25.69;53.63;96121.73;609963;232;69064;-66
2022/12/10 05:26:51;;;;;;;;;;;;;;;25.68;54.67;96131.72;609741;232;62572;-66
2022/12/10 05:29:19;;;;;;;;;;;;;;;25.67;53.83;96123.95;608107;233;66583;-66
2022/12/10 05:31:47;;;;;;;;;;;;;;;25.66;54.21;96133.93;608065;233;66589;-66
2022/12/10 05:34:14;;;;;;;;;;;;;;;25.64;54.49;96133.45;608033;232;62920;-66
2022/12/10 05:36:42;;;;;;;;;;;;;;;25.64;53.95;96135.36;608029;233;66590;-70
2022/12/10 05:39:10;;;;;;;;;;;;;;;25.63;54.78;96129.20;608005;233;66716;-69
2022/12/10 05:41:38;;;;;;;;;;;;;;;25.62;53.95;96127.63;608107;233;65077;-70
2022/12/10 05:44:07;;;;;;;;;;;;;;;25.62;54.57;96118.77;607942;233;68451;-70
2022/12/10 05:46:35;;;;;;;;;;;;;;;25.62;54.10;96118.77;608056;233;68756;-70
2022/12/10 05:49:05;;;;;;;;;;;;;;;25.61;54.76;96109.10;607804;233;63002;-67
2022/12/10 05:51:33;;;;;;;;;;;;;;;25.60;54.60;96115.61;608049;233;66926;-67
2022/12/10 05:54:04;;;;;;;;;;;;;;;25.60;55.15;96111.02;608017;233;68778;-67
2022/12/10 05:56:31;;;;;;;;;;;;;;;25.58;54.14;96118.61;608038;233;63033;-66
2022/12/10 05:59:00;;;;;;;;;;;;;;;25.58;54.92;96117.83;608037;233;66576;-66
2022/12/10 06:01:29;;;;;;;;;;;;;;;25.56;55.47;96115.44;608037;233;68683;-66
2022/12/10 06:03:57;;;;;;;;;;;;;;;25.57;54.51;96117.04;608054;233;64880;-66
2022/12/10 06:06:26;;;;;;;;;;;;;;;25.56;54.02;96120.83;608134;233;68581;-67
2022/12/10 06:08:54;;;;;;;;;;;;;;;25.56;54.69;96117.34;608037;233;68886;-67
2022/12/10 06:11:23;;;;;;;;;;;;;;;25.54;54.22;96106.14;608027;233;65935;-66
2022/12/10 06:13:51;;;;;;;;;;;;;;;25.55;55.36;96113.09;608017;233;66214;-66
2022/12/10 06:16:18;;;;;;;;;;;;;;;25.52;54.52;96111.05;608043;233;66385;-67
2022/12/10 06:18:46;;;;;;;;;;;;;;;25.51;54.86;96101.38;608067;233;65130;-70
2022/12/10 06:21:15;;;;;;;;;;;;;;;25.51;55.30;96117.52;608038;233;68577;-70
2022/12/10 06:23:43;;;;;;;;;;;;;;;25.49;54.21;96114.39;608058;233;66364;-70
2022/12/10 06:26:12;;;;;;;;;;;;;;;25.49;54.94;96112.48;608034;233;64933;-70
2022/12/10 06:28:40;;;;;;;;;;;;;;;25.49;55.32;96111.70;609729;232;68569;-67
2022/12/10 06:31:07;;;;;;;;;;;;;;;25.47;55.15;96107.41;610088;232;68333;-69
2022/12/10 06:33:35;;;;;;;;;;;;;;;25.47;54.59;96112.79;610006;232;65024;-70
2022/12/10 06:36:07;;;;;;;;;;;;;;;25.47;56.24;96106.63;608648;230;68877;-70
2022/12/10 06:38:35;;;;;;;;;;;;;;;25.47;55.20;96102.03;609974;232;69083;-69
2022/12/10 06:41:07;;;;;;;;;;;;;;;25.46;56.15;96103.15;610003;232;65113;-70
2022/12/10 06:43:34;;;;;;;;;;;;;;;25.46;56.37;96103.15;609963;232;68797;-70
2022/12/10 06:46:08;;;;;;;;;;;;;;;25.46;55.88;96099.67;610041;232;68706;-69
2022/12/10 06:48:36;;;;;;;;;;;;;;;25.44;54.62;96094.61;609859;232;65215;-70
2022/12/10 06:51:04;;;;;;;;;;;;;;;25.44;56.26;96105.37;610002;232;66694;-71
2022/12/10 06:53:35;;;;;;;;;;;;;;;25.42;54.56;96094.12;609994;232;68757;-70
2022/12/10 06:56:04;;;;;;;;;;;;;;;25.43;56.70;96093.04;609997;232;65047;-73
2022/12/10 06:58:33;;;;;;;;;;;;;;;25.42;55.57;96098.73;610015;232;66036;-71
2022/12/10 07:01:04;;;;;;;;;;;;;;;25.42;56.91;96096.82;609989;232;69615;-71
2022/12/10 07:03:31;;;;;;;;;;;;;;;25.41;56.82;96102.54;609974;232;64957;-71
2022/12/10 07:05:59;;;;;;;;;;;;;;;25.41;57.36;96102.54;610006;232;68934;-70
2022/12/10 07:08:27;;;;;;;;;;;;;;;25.40;56.49;96106.32;609982;232;68701;-71
2022/12/10 07:10:55;;;;;;;;;;;;;;;25.39;56.33;96105.53;610009;232;64830;-70
2022/12/10 07:13:23;;;;;;;;;;;;;;;25.39;56.21;96107.44;610045;232;68727;-70
2022/12/10 07:15:51;;;;;;;;;;;;;;;25.39;56.67;96105.53;610024;232;68573;-70
2022/12/10 07:18:19;;;;;;;;;;;;;;;25.37;55.84;96107.78;610006;232;65146;-70
2022/12/10 07:20:48;;;;;;;;;;;;;;;25.38;56.77;96109.34;610042;232;67336;-71
2022/12/10 07:23:15;;;;;;;;;;;;;;;25.37;57.03;96102.40;609981;232;68690;-70
2022/12/10 07:25:43;;;;;;;;;;;;;;;25.36;56.26;96094.64;610048;232;64889;-70
2022/12/10 07:28:10;;;;;;;;;;;;;;;25.36;56.01;96090.05;609976;232;68901;-69
2022/12/10 07:30:38;;;;;;;;;;;;;;;25.35;56.23;96093.08;610020;232;68682;-69
2022/12/10 07:33:05;;;;;;;;;;;;;;;25.34;57.45;96097.64;610028;232;65013;-69
2022/12/10 07:35:33;;;;;;;;;;;;;;;25.35;57.53;96095.77;609990;232;68740;-69
2022/12/10 07:38:00;;;;;;;;;;;;;;;25.34;56.78;96096.86;610068;232;68713;-70
2022/12/10 07:40:28;;;;;;;;;;;;;;;25.33;56.44;96089.91;609994;232;65094;-70
2022/12/10 07:42:55;;;;;;;;;;;;;;;25.33;57.38;96097.98;609990;232;68859;-70
2022/12/10 07:45:24;;;;;;;;;;;;;;;25.33;56.93;96096.07;610029;232;68297;-70
2022/12/10 07:47:52;;;;;;;;;;;;;;;25.32;56.99;96091.00;609903;232;65076;-70
2022/12/10 07:50:19;;;;;;;;;;;;;;;25.30;57.44;96083.27;610026;232;66437;-70
2022/12/10 07:52:47;;;;;;;;;;;;;;;25.30;57.07;96091.34;609927;232;69008;-70
2022/12/10 07:55:14;;;;;;;;;;;;;;;25.30;54.55;96090.55;609043;232;65094;-70
2022/12/10 07:57:42;;;;;;;;;;;;;;;25.29;57.22;96092.45;609977;232;68767;-70
2022/12/10 08:00:10;;;;;;;;;;;;;;;25.29;57.21;96083.58;609996;232;68682;-69
2022/12/10 08:02:40;;;;;;;;;;;;;;;25.28;57.68;96082.80;609990;232;64963;-69
2022/12/10 08:05:08;;;;;;;;;;;;;;;25.27;56.02;96083.13;610042;232;66322;-70
2022/12/10 08:07:36;;;;;;;;;;;;;;;25.28;57.27;96082.02;610001;232;66768;-71
2022/12/10 08:10:04;;;;;;;;;;;;;;;25.27;56.26;96083.13;610018;232;62665;-71
2022/12/10 08:12:31;;;;;;;;;;;;;;;25.25;57.41;96084.22;609988;232;66380;-71
2022/12/10 08:14:59;;;;;;;;;;;;;;;25.24;56.75;96089.94;609996;232;66719;-70
2022/12/10 08:17:26;;;;;;;;;;;;;;;25.24;57.22;96081.88;610030;232;62994;-71
2022/12/10 08:19:54;;;;;;;;;;;;;;;25.23;57.16;96080.27;610013;232;68847;-70
2022/12/10 08:22:22;;;;;;;;;;;;;;;25.23;57.04;96080.27;610014;232;68888;-70
2022/12/10 08:24:49;;;;;;;;;;;;;;;25.23;57.40;96091.03;610041;232;63076;-70
2022/12/10 08:27:17;;;;;;;;;;;;;;;25.21;58.58;96077.92;609975;232;66597;-70
2022/12/10 08:29:44;;;;;;;;;;;;;;;25.21;57.67;96075.23;610047;232;68734;-71
2022/12/10 08:32:12;;;;;;;;;;;;;;;25.19;56.94;96068.59;610032;232;65077;-70
2022/12/10 08:34:39;;;;;;;;;;;;;;;25.21;57.33;96074.45;610049;232;68891;-70
2022/12/10 08:37:07;;;;;;;;;;;;;;;25.20;56.90;96070.16;610032;232;68677;-69
2022/12/10 08:39:34;;;;;;;;;;;;;;;25.18;56.34;96062.44;610034;232;62538;-69
2022/12/10 08:42:02;;;;;;;;;;;;;;;25.18;58.02;96056.24;610036;232;66632;-69
2022/12/10 08:44:29;;;;;;;;;;;;;;;25.17;56.65;96050.08;610007;232;66575;-69
2022/12/10 08:46:57;;;;;;;;;;;;;;;25.16;56.78;96048.52;610040;232;62668;-69
2022/12/10 08:49:24;;;;;;;;;;;;;;;25.16;57.31;96051.20;610021;232;66694;-70
2022/12/10 08:51:52;;;;;;;;;;;;;;;25.17;58.11;96043.92;610036;232;66598;-70
2022/12/10 08:54:19;;;;;;;;;;;;;;;25.15;57.35;96040.76;610059;232;63815;-70
2022/12/10 08:56:47;;;;;;;;;;;;;;;25.14;58.53;96039.16;610027;232;68855;-71
2022/12/10 08:59:14;;;;;;;;;;;;;;;25.14;58.21;96034.56;610021;232;68468;-70
2022/12/10 09:01:42;;;;;;;;;;;;;;;25.14;56.85;96031.09;610031;232;65099;-65
2022/12/10 09:04:10;;;;;;;;;;;;;;;25.14;58.28;96017.66;610012;232;68862;-66
2022/12/10 09:06:37;;;;;;;;;;;;;;;25.13;57.08;96005.33;603156;232;69041;-67
2022/12/10 09:09:05;;;;;;;;;;;;;;;25.11;57.78;96008.33;610081;232;62911;-66
2022/12/10 09:11:33;;;;;;;;;;;;;;;25.10;57.44;95996.02;609996;232;68805;-67
2022/12/10 09:14:03;;;;;;;;;;;;;;;25.11;57.83;95986.83;610063;232;48374;-67
2022/12/10 09:16:35;;;;;;;;;;;;;;;25.09;57.83;95980.19;610000;232;62922;-67
2022/12/10 09:19:05;;;;;;;;;;;;;;;25.08;57.77;95970.56;610043;232;68946;-66
2022/12/10 09:21:33;;;;;;;;;;;;;;;25.08;55.63;95965.19;610074;232;68715;-67
2022/12/10 09:24:00;;;;;;;;;;;;;;;25.08;58.14;95971.34;610000;232;63798;-66
2022/12/10 09:26:28;;;;;;;;;;;;;;;25.08;57.23;95967.88;610036;232;66275;-67
2022/12/10 09:28:57;;;;;;;;;;;;;;;25.07;57.94;95963.59;608056;232;66567;-67
2022/12/10 09:31:24;;;;;;;;;;;;;;;25.06;57.10;95951.27;608019;233;62923;-67
2022/12/10 09:33:53;;;;;;;;;;;;;;;25.05;56.82;95941.64;608092;233;68812;-67
2022/12/10 09:36:21;;;;;;;;;;;;;;;25.05;56.57;95944.33;607999;233;68716;-69
2022/12/10 09:38:48;;;;;;;;;;;;;;;25.05;58.52;95942.42;607991;233;64923;-67
2022/12/10 09:41:21;;;;;;;;;;;;;;;25.02;56.13;95935.79;608019;233;68819;-67
2022/12/10 09:43:49;;;;;;;;;;;;;;;25.03;57.27;95942.73;608014;233;68567;-67
2022/12/10 09:46:25;;;;;;;;;;;;;;;25.02;56.78;95930.41;607988;233;65237;-67
2022/12/10 09:48:57;;;;;;;;;;;;;;;25.01;56.34;95919.97;608078;233;68783;-66
2022/12/10 09:51:26;;;;;;;;;;;;;;;25.00;56.93;95911.12;608017;233;68692;-66
2022/12/10 09:53:58;;;;;;;;;;;;;;;24.99;57.53;95904.19;608023;233;62842;-66
2022/12/10 09:56:29;;;;;;;;;;;;;;;24.99;56.82;95904.19;607961;233;70020;-66
2022/12/10 09:59:17;;;;;;;;;;;;;;;24.99;56.07;95898.00;616823;230;39135;-66
2022/12/10 10:01:45;;;;;;;;;;;;;;;24.97;55.11;95900.24;617050;229;62842;-66
2022/12/10 10:04:13;;;;;;;;;;;;;;;24.98;58.18;95896.44;617337;230;68757;-66
2022/12/10 10:06:41;;;;;;;;;;;;;;;24.96;57.07;95888.70;617281;230;68588;-66
2022/12/10 10:09:10;;;;;;;;;;;;;;;24.97;57.85;95884.90;617304;230;65100;-66
2022/12/10 10:11:38;;;;;;;;;;;;;;;24.95;56.06;95879.05;617314;230;68849;-66
2022/12/10 10:14:07;;;;;;;;;;;;;;;24.95;56.98;95870.98;617287;230;68235;-66
2022/12/10 10:16:36;;;;;;;;;;;;;;;24.94;57.16;95868.64;617239;230;62738;-66
2022/12/10 10:19:05;;;;;;;;;;;;;;;24.93;57.70;95858.98;617348;230;68591;-66
2022/12/10 10:21:43;;;;;;;;;;;;;;;24.92;57.08;95855.52;617260;230;66763;-67
2022/12/10 10:24:15;;;;;;;;;;;;;;;24.92;56.53;95852.05;617313;230;62963;-66
2022/12/10 10:26:42;;;;;;;;;;;;;;;24.91;57.19;95859.33;617276;230;68562;-67
2022/12/10 10:29:12;;;;;;;;;;;;;;;24.91;56.76;95851.27;617275;230;68535;-67
2022/12/10 10:31:41;;;;;;;;;;;;;;;24.90;57.25;95846.20;617358;230;65138;-67
2022/12/10 10:34:10;;;;;;;;;;;;;;;24.91;57.02;95848.58;617276;230;68402;-67
2022/12/10 10:36:38;;;;;;;;;;;;;;;24.89;57.50;95845.42;616849;229;68647;-67
2022/12/10 10:39:13;;;;;;;;;;;;;;;24.87;55.78;95828.05;617289;230;63837;-67
2022/12/10 10:41:41;;;;;;;;;;;;;;;24.87;57.25;95830.73;616934;229;68469;-66
2022/12/10 10:44:13;;;;;;;;;;;;;;;24.88;56.99;95833.11;617274;230;66546;-67
2022/12/10 10:46:42;;;;;;;;;;;;;;;24.86;55.92;95832.64;617074;229;65218;-66
2022/12/10 10:49:14;;;;;;;;;;;;;;;24.86;56.93;95837.23;617287;230;67004;-66
2022/12/10 10:51:45;;;;;;;;;;;;;;;24.85;55.56;95832.95;617259;230;66669;-65
2022/12/10 10:54:14;;;;;;;;;;;;;;;24.83;54.22;95829.78;617263;230;65034;-66
2022/12/10 10:56:43;;;;;;;;;;;;;;;24.84;57.08;95826.79;616453;229;68705;-66
2022/12/10 10:59:19;;;;;;;;;;;;;;;24.83;56.16;95822.53;615587;230;66587;-66
2022/12/10 11:01:48;;;;;;;;;;;;;;;24.83;57.39;95819.85;615530;230;63075;-67
2022/12/10 11:04:17;;;;;;;;;;;;;;;24.81;54.51;95811.32;615518;230;68856;-67
2022/12/10 11:06:46;;;;;;;;;;;;;;;24.81;55.96;95812.10;615423;230;47268;-66
2022/12/10 11:09:15;;;;;;;;;;;;;;;24.82;57.34;95807.51;615519;230;62898;-66
2022/12/10 11:11:44;;;;;;;;;;;;;;;24.81;56.49;95811.32;615257;230;66621;-66
2022/12/10 11:14:16;;;;;;;;;;;;;;;24.80;57.62;95812.44;615312;230;68714;-66
2022/12/10 11:16:43;;;;;;;;;;;;;;;24.81;57.24;95816.70;615516;230;63006;-66
2022/12/10 11:19:12;;;;;;;;;;;;;;;24.79;57.00;95800.88;615518;230;66616;-67
2022/12/10 11:21:40;;;;;;;;;;;;;;;24.79;57.42;95803.57;615138;230;66470;-66
2022/12/10 11:24:09;;;;;;;;;;;;;;;24.78;58.14;95801.22;615492;230;64990;-65
2022/12/10 11:26:55;;;;;;;;;;;;;;;24.77;56.89;95796.94;615569;230;66531;-69
2022/12/10 11:29:24;;;;;;;;;;;;;;;24.77;57.45;95796.94;615579;230;66708;-66
2022/12/10 11:31:56;;;;;;;;;;;;;;;24.75;55.06;95789.23;615293;230;64896;-66
2022/12/10 11:34:26;;;;;;;;;;;;;;;24.75;57.74;95786.53;615518;230;68963;-65
2022/12/10 11:36:58;;;;;;;;;;;;;;;24.75;56.84;95791.13;614465;230;69059;-67
2022/12/10 11:39:27;;;;;;;;;;;;;;;24.76;58.12;95782.73;611191;230;65023;-68
2022/12/10 11:41:56;;;;;;;;;;;;;;;24.75;56.75;95786.53;615454;230;68802;-69
2022/12/10 11:44:28;;;;;;;;;;;;;;;24.73;57.20;95783.38;614978;230;68668;-69
2022/12/10 11:47:09;;;;;;;;;;;;;;;24.74;57.39;95784.16;615357;230;65151;-69
2022/12/10 11:49:37;;;;;;;;;;;;;;;24.73;57.05;95778.01;615172;230;68740;-69
2022/12/10 11:52:10;;;;;;;;;;;;;;;24.72;56.86;95775.66;615523;230;68564;-69
2022/12/10 11:54:48;;;;;;;;;;;;;;;24.72;57.57;95776.45;615566;230;62746;-69
2022/12/10 11:57:20;;;;;;;;;;;;;;;24.70;56.51;95769.82;615704;229;68464;-69
2022/12/10 12:00:08;;;;;;;;;;;;;;;24.69;56.46;95760.16;617260;230;68805;-69
2022/12/10 12:02:49;;;;;;;;;;;;;;;24.69;58.77;95750.23;617264;230;63888;-69
2022/12/10 12:05:21;;;;;;;;;;;;;;;24.68;57.39;95747.86;616931;229;69022;-70
2022/12/10 12:07:59;;;;;;;;;;;;;;;24.66;55.72;95734.73;617160;229;68733;-70
2022/12/10 12:10:43;;;;;;;;;;;;;;;24.67;59.01;95741.70;617237;230;63227;-70
2022/12/10 12:13:18;;;;;;;;;;;;;;;24.68;56.87;95745.95;617069;229;68881;-70
2022/12/10 12:15:47;;;;;;;;;;;;;;;24.67;57.72;95735.55;617264;230;66416;-70
2022/12/10 12:18:16;;;;;;;;;;;;;;;24.67;58.47;95732.86;614995;230;63175;-70
2022/12/10 12:20:45;;;;;;;;;;;;;;;24.65;57.61;95733.17;617032;229;66614;-70
2022/12/10 12:23:17;;;;;;;;;;;;;;;24.65;57.09;95730.48;617197;230;66731;-70
2022/12/10 12:25:46;;;;;;;;;;;;;;;24.64;57.24;95730.83;617193;230;64940;-70
2022/12/10 12:28:15;;;;;;;;;;;;;;;24.63;57.76;95734.61;617252;230;66721;-70
2022/12/10 12:30:44;;;;;;;;;;;;;;;24.63;58.36;95732.70;617313;230;66721;-71
2022/12/10 12:33:19;;;;;;;;;;;;;;;24.63;57.68;95729.23;617303;230;62972;-70
2022/12/10 12:35:51;;;;;;;;;;;;;;;24.62;57.38;95733.05;617114;229;68825;-70
2022/12/10 12:38:20;;;;;;;;;;;;;;;24.62;57.34;95735.73;617252;230;71272;-67
2022/12/10 12:40:49;;;;;;;;;;;;;;;24.61;57.60;95743.02;617306;230;63054;-67
2022/12/10 12:43:18;;;;;;;;;;;;;;;24.59;57.27;95732.58;617197;230;66655;-67
2022/12/10 12:45:47;;;;;;;;;;;;;;;24.61;57.28;95724.20;617323;230;68442;-65
2022/12/10 12:48:17;;;;;;;;;;;;;;;24.60;57.52;95727.98;617261;230;65116;-66
2022/12/10 12:50:46;;;;;;;;;;;;;;;24.59;57.86;95719.15;617279;230;68785;-66
2022/12/10 12:53:15;;;;;;;;;;;;;;;24.58;58.24;95728.33;617270;230;69622;-66
2022/12/10 12:55:44;;;;;;;;;;;;;;;24.57;56.58;95726.73;617278;230;65124;-66
2022/12/10 12:58:29;;;;;;;;;;;;;;;24.58;58.83;95722.95;616207;229;66686;-66
2022/12/10 13:00:58;;;;;;;;;;;;;;;24.57;57.70;95726.73;615429;230;66612;-66
2022/12/10 13:03:30;;;;;;;;;;;;;;;24.57;58.22;95729.42;615541;230;65130;-66
2022/12/10 13:05:59;;;;;;;;;;;;;;;24.56;57.97;95725.17;615531;230;68844;-66
2022/12/10 13:08:28;;;;;;;;;;;;;;;24.54;58.49;95719.33;614880;230;68813;-67
2022/12/10 13:11:12;;;;;;;;;;;;;;;24.55;57.42;95712.88;615558;230;65758;-65